sensor_id;sensor_type;location;lat;lon;timestamp;temperature;humidity
56861;DHT22;42744;51.094;3.490;2023-07-31T00:00:38;16.80;99.90
56861;DHT22;42744;51.094;3.490;2023-07-31T00:03:04;16.80;99.90
56861;DHT22;42744;51.094;3.490;2023-07-31T00:05:30;16.80;99.90
56861;DHT22;42744;51.094;3.490;2023-07-31T00:07:56;16.80;99.90
56861;DHT22;42744;51.094;3.490;2023-07-31T00:10:22;16.80;99.90
56861;DHT22;42744;51.094;3.490;2023-07-31T00:12:48;16.80;99.90
56861;DHT22;42744;51.094;3.490;2023-07-31T00:15:14;16.80;99.90
56861;DHT22;42744;51.094;3.490;2023-07-31T00:17:41;16.80;99.90
56861;DHT22;42744;51.094;3.490;2023-07-31T00:20:07;16.90;99.90
56861;DHT22;42744;51.094;3.490;2023-07-31T00:22:33;16.80;99.90
56861;DHT22;42744;51.094;3.490;2023-07-31T00:24:59;16.80;99.90
56861;DHT22;42744;51.094;3.490;2023-07-31T00:27:25;16.80;99.90
56861;DHT22;42744;51.094;3.490;2023-07-31T00:29:51;16.80;99.90
56861;DHT22;42744;51.094;3.490;2023-07-31T00:32:17;16.80;99.90
56861;DHT22;42744;51.094;3.490;2023-07-31T00:34:43;16.80;99.90
56861;DHT22;42744;51.094;3.490;2023-07-31T00:37:09;16.80;99.90
56861;DHT22;42744;51.094;3.490;2023-07-31T00:39:35;16.80;99.90
56861;DHT22;42744;51.094;3.490;2023-07-31T00:42:01;16.80;99.90
56861;DHT22;42744;51.094;3.490;2023-07-31T00:44:27;16.80;99.90
56861;DHT22;42744;51.094;3.490;2023-07-31T00:46:54;16.80;99.90
56861;DHT22;42744;51.094;3.490;2023-07-31T00:49:22;16.80;99.90
56861;DHT22;42744;51.094;3.490;2023-07-31T00:51:48;16.80;99.90
56861;DHT22;42744;51.094;3.490;2023-07-31T00:54:21;16.80;99.90
56861;DHT22;42744;51.094;3.490;2023-07-31T00:56:47;16.80;99.90
56861;DHT22;42744;51.094;3.490;2023-07-31T00:59:14;16.80;99.90
56861;DHT22;42744;51.094;3.490;2023-07-31T01:01:41;16.80;99.90
56861;DHT22;42744;51.094;3.490;2023-07-31T01:04:13;16.80;99.90
56861;DHT22;42744;51.094;3.490;2023-07-31T01:06:44;16.80;99.90
56861;DHT22;42744;51.094;3.490;2023-07-31T01:09:46;16.80;99.90
56861;DHT22;42744;51.094;3.490;2023-07-31T01:12:15;16.80;99.90
56861;DHT22;42744;51.094;3.490;2023-07-31T01:15:01;16.80;99.90
56861;DHT22;42744;51.094;3.490;2023-07-31T01:17:28;16.90;99.90
56861;DHT22;42744;51.094;3.490;2023-07-31T01:19:55;16.80;99.90
56861;DHT22;42744;51.094;3.490;2023-07-31T01:25:05;16.80;99.90
56861;DHT22;42744;51.094;3.490;2023-07-31T01:27:51;16.80;99.90
56861;DHT22;42744;51.094;3.490;2023-07-31T01:30:22;16.80;99.90
56861;DHT22;42744;51.094;3.490;2023-07-31T01:32:51;16.80;99.90
56861;DHT22;42744;51.094;3.490;2023-07-31T01:35:19;16.80;99.90
56861;DHT22;42744;51.094;3.490;2023-07-31T01:37:45;16.80;99.90
56861;DHT22;42744;51.094;3.490;2023-07-31T01:40:11;16.80;99.90
56861;DHT22;42744;51.094;3.490;2023-07-31T01:42:37;16.80;99.90
56861;DHT22;42744;51.094;3.490;2023-07-31T01:45:04;16.80;99.90
56861;DHT22;42744;51.094;3.490;2023-07-31T01:47:30;16.80;99.90
56861;DHT22;42744;51.094;3.490;2023-07-31T01:49:56;16.80;99.90
56861;DHT22;42744;51.094;3.490;2023-07-31T01:52:22;16.80;99.90
56861;DHT22;42744;51.094;3.490;2023-07-31T01:54:48;16.90;99.90
56861;DHT22;42744;51.094;3.490;2023-07-31T01:57:14;16.90;99.90
56861;DHT22;42744;51.094;3.490;2023-07-31T01:59:40;16.90;99.90
56861;DHT22;42744;51.094;3.490;2023-07-31T02:02:06;16.90;99.90
56861;DHT22;42744;51.094;3.490;2023-07-31T02:04:32;16.90;99.90
56861;DHT22;42744;51.094;3.490;2023-07-31T02:06:58;16.90;99.90
56861;DHT22;42744;51.094;3.490;2023-07-31T02:09:24;16.90;99.90
56861;DHT22;42744;51.094;3.490;2023-07-31T02:11:50;17.00;99.90
56861;DHT22;42744;51.094;3.490;2023-07-31T02:14:16;17.00;99.90
56861;DHT22;42744;51.094;3.490;2023-07-31T02:16:42;17.00;99.90
56861;DHT22;42744;51.094;3.490;2023-07-31T02:19:08;17.00;99.90
56861;DHT22;42744;51.094;3.490;2023-07-31T02:21:34;17.00;99.90
56861;DHT22;42744;51.094;3.490;2023-07-31T02:24:00;17.00;99.90
56861;DHT22;42744;51.094;3.490;2023-07-31T02:26:26;17.00;99.90
56861;DHT22;42744;51.094;3.490;2023-07-31T02:28:52;17.00;99.90
56861;DHT22;42744;51.094;3.490;2023-07-31T02:31:18;17.00;99.90
56861;DHT22;42744;51.094;3.490;2023-07-31T02:33:44;17.00;99.90
56861;DHT22;42744;51.094;3.490;2023-07-31T02:36:11;17.00;99.90
56861;DHT22;42744;51.094;3.490;2023-07-31T02:38:37;17.00;99.90
56861;DHT22;42744;51.094;3.490;2023-07-31T02:41:03;17.00;99.90
56861;DHT22;42744;51.094;3.490;2023-07-31T02:43:29;17.00;99.90
56861;DHT22;42744;51.094;3.490;2023-07-31T02:45:54;17.00;99.90
56861;DHT22;42744;51.094;3.490;2023-07-31T02:48:21;17.00;99.90
56861;DHT22;42744;51.094;3.490;2023-07-31T02:50:47;17.00;99.90
56861;DHT22;42744;51.094;3.490;2023-07-31T02:53:13;17.00;99.90
56861;DHT22;42744;51.094;3.490;2023-07-31T02:55:41;17.00;99.90
56861;DHT22;42744;51.094;3.490;2023-07-31T02:58:06;16.90;99.90
56861;DHT22;42744;51.094;3.490;2023-07-31T03:00:32;16.90;99.90
56861;DHT22;42744;51.094;3.490;2023-07-31T03:02:59;16.90;99.90
56861;DHT22;42744;51.094;3.490;2023-07-31T03:05:24;16.90;99.90
56861;DHT22;42744;51.094;3.490;2023-07-31T03:07:50;16.90;99.90
56861;DHT22;42744;51.094;3.490;2023-07-31T03:10:16;16.80;99.90
56861;DHT22;42744;51.094;3.490;2023-07-31T03:12:46;16.80;99.90
56861;DHT22;42744;51.094;3.490;2023-07-31T03:15:13;16.80;99.90
56861;DHT22;42744;51.094;3.490;2023-07-31T03:17:39;16.70;99.90
56861;DHT22;42744;51.094;3.490;2023-07-31T03:20:05;16.60;99.90
56861;DHT22;42744;51.094;3.490;2023-07-31T03:22:31;16.60;99.90
56861;DHT22;42744;51.094;3.490;2023-07-31T03:24:57;16.60;99.90
56861;DHT22;42744;51.094;3.490;2023-07-31T03:27:23;16.60;99.90
56861;DHT22;42744;51.094;3.490;2023-07-31T03:29:49;16.50;99.90
56861;DHT22;42744;51.094;3.490;2023-07-31T03:32:17;16.50;99.90
56861;DHT22;42744;51.094;3.490;2023-07-31T03:34:43;16.50;99.90
56861;DHT22;42744;51.094;3.490;2023-07-31T03:37:08;16.50;99.90
56861;DHT22;42744;51.094;3.490;2023-07-31T03:39:35;16.40;99.90
56861;DHT22;42744;51.094;3.490;2023-07-31T03:42:01;16.40;99.90
56861;DHT22;42744;51.094;3.490;2023-07-31T03:44:28;16.40;99.90
56861;DHT22;42744;51.094;3.490;2023-07-31T03:46:54;16.40;99.90
56861;DHT22;42744;51.094;3.490;2023-07-31T03:49:20;16.40;99.90
56861;DHT22;42744;51.094;3.490;2023-07-31T03:51:46;16.40;99.90
56861;DHT22;42744;51.094;3.490;2023-07-31T03:54:12;16.30;99.90
56861;DHT22;42744;51.094;3.490;2023-07-31T03:56:40;16.40;99.90
56861;DHT22;42744;51.094;3.490;2023-07-31T03:59:06;16.30;99.90
56861;DHT22;42744;51.094;3.490;2023-07-31T04:01:32;16.30;99.90
56861;DHT22;42744;51.094;3.490;2023-07-31T04:03:58;16.30;99.90
56861;DHT22;42744;51.094;3.490;2023-07-31T04:06:24;16.30;99.90
56861;DHT22;42744;51.094;3.490;2023-07-31T04:08:50;16.30;99.90
56861;DHT22;42744;51.094;3.490;2023-07-31T04:11:16;16.30;99.90
56861;DHT22;42744;51.094;3.490;2023-07-31T04:13:43;16.30;99.90
56861;DHT22;42744;51.094;3.490;2023-07-31T04:16:08;16.40;99.90
56861;DHT22;42744;51.094;3.490;2023-07-31T04:18:34;16.30;99.90
56861;DHT22;42744;51.094;3.490;2023-07-31T04:21:00;16.30;99.90
56861;DHT22;42744;51.094;3.490;2023-07-31T04:23:29;16.40;99.90
56861;DHT22;42744;51.094;3.490;2023-07-31T04:25:55;16.40;99.90
56861;DHT22;42744;51.094;3.490;2023-07-31T04:28:21;16.40;99.90
56861;DHT22;42744;51.094;3.490;2023-07-31T04:30:47;16.40;99.90
56861;DHT22;42744;51.094;3.490;2023-07-31T04:33:13;16.40;99.90
56861;DHT22;42744;51.094;3.490;2023-07-31T04:35:39;16.40;99.90
56861;DHT22;42744;51.094;3.490;2023-07-31T04:38:05;16.50;99.90
56861;DHT22;42744;51.094;3.490;2023-07-31T04:40:31;16.50;99.90
56861;DHT22;42744;51.094;3.490;2023-07-31T04:42:57;16.50;99.90
56861;DHT22;42744;51.094;3.490;2023-07-31T04:45:23;16.50;99.90
56861;DHT22;42744;51.094;3.490;2023-07-31T04:47:49;16.50;99.90
56861;DHT22;42744;51.094;3.490;2023-07-31T04:50:15;16.50;99.90
56861;DHT22;42744;51.094;3.490;2023-07-31T04:52:41;16.50;99.90
56861;DHT22;42744;51.094;3.490;2023-07-31T04:55:07;16.50;99.90
56861;DHT22;42744;51.094;3.490;2023-07-31T04:57:33;16.50;99.90
56861;DHT22;42744;51.094;3.490;2023-07-31T04:59:59;16.50;99.90
56861;DHT22;42744;51.094;3.490;2023-07-31T05:02:25;16.50;99.90
56861;DHT22;42744;51.094;3.490;2023-07-31T05:04:51;16.50;99.90
56861;DHT22;42744;51.094;3.490;2023-07-31T05:07:17;16.50;99.90
56861;DHT22;42744;51.094;3.490;2023-07-31T05:09:43;16.50;99.90
56861;DHT22;42744;51.094;3.490;2023-07-31T05:12:14;16.50;99.90
56861;DHT22;42744;51.094;3.490;2023-07-31T05:14:40;16.50;99.90
56861;DHT22;42744;51.094;3.490;2023-07-31T05:17:10;16.50;99.90
56861;DHT22;42744;51.094;3.490;2023-07-31T05:19:36;16.60;99.90
56861;DHT22;42744;51.094;3.490;2023-07-31T05:22:02;16.60;99.90
56861;DHT22;42744;51.094;3.490;2023-07-31T05:24:28;16.60;99.90
56861;DHT22;42744;51.094;3.490;2023-07-31T05:26:54;16.60;99.90
56861;DHT22;42744;51.094;3.490;2023-07-31T05:29:19;16.60;99.90
56861;DHT22;42744;51.094;3.490;2023-07-31T05:31:46;16.60;99.90
56861;DHT22;42744;51.094;3.490;2023-07-31T05:34:12;16.60;99.90
56861;DHT22;42744;51.094;3.490;2023-07-31T05:36:38;16.70;99.90
56861;DHT22;42744;51.094;3.490;2023-07-31T05:39:04;16.70;99.90
56861;DHT22;42744;51.094;3.490;2023-07-31T05:41:35;16.70;99.90
56861;DHT22;42744;51.094;3.490;2023-07-31T05:44:00;16.70;99.90
56861;DHT22;42744;51.094;3.490;2023-07-31T05:46:27;16.70;99.90
56861;DHT22;42744;51.094;3.490;2023-07-31T05:48:52;16.70;99.90
56861;DHT22;42744;51.094;3.490;2023-07-31T05:51:18;16.70;99.90
56861;DHT22;42744;51.094;3.490;2023-07-31T05:53:44;16.70;99.90
56861;DHT22;42744;51.094;3.490;2023-07-31T05:56:10;16.70;99.90
56861;DHT22;42744;51.094;3.490;2023-07-31T05:58:36;16.70;99.90
56861;DHT22;42744;51.094;3.490;2023-07-31T06:01:02;16.70;99.90
56861;DHT22;42744;51.094;3.490;2023-07-31T06:03:28;16.70;99.90
56861;DHT22;42744;51.094;3.490;2023-07-31T06:05:54;16.70;99.90
56861;DHT22;42744;51.094;3.490;2023-07-31T06:08:20;16.70;99.90
56861;DHT22;42744;51.094;3.490;2023-07-31T06:10:46;16.70;99.90
56861;DHT22;42744;51.094;3.490;2023-07-31T06:13:12;16.70;99.90
56861;DHT22;42744;51.094;3.490;2023-07-31T06:15:38;16.70;99.90
56861;DHT22;42744;51.094;3.490;2023-07-31T06:18:04;16.70;99.90
56861;DHT22;42744;51.094;3.490;2023-07-31T06:20:36;16.70;99.90
56861;DHT22;42744;51.094;3.490;2023-07-31T06:23:02;16.70;99.90
56861;DHT22;42744;51.094;3.490;2023-07-31T06:25:36;16.70;99.90
56861;DHT22;42744;51.094;3.490;2023-07-31T06:28:02;16.70;99.90
56861;DHT22;42744;51.094;3.490;2023-07-31T06:30:28;16.70;99.90
56861;DHT22;42744;51.094;3.490;2023-07-31T06:32:54;16.70;99.90
56861;DHT22;42744;51.094;3.490;2023-07-31T06:35:20;16.70;99.90
56861;DHT22;42744;51.094;3.490;2023-07-31T06:37:46;16.70;99.90
56861;DHT22;42744;51.094;3.490;2023-07-31T06:40:12;16.70;99.90
56861;DHT22;42744;51.094;3.490;2023-07-31T06:42:38;16.80;99.90
56861;DHT22;42744;51.094;3.490;2023-07-31T06:45:04;16.80;99.90
56861;DHT22;42744;51.094;3.490;2023-07-31T06:47:31;16.80;99.90
56861;DHT22;42744;51.094;3.490;2023-07-31T06:49:57;16.80;99.90
56861;DHT22;42744;51.094;3.490;2023-07-31T06:52:23;16.80;99.90
56861;DHT22;42744;51.094;3.490;2023-07-31T06:55:04;16.80;99.90
56861;DHT22;42744;51.094;3.490;2023-07-31T06:57:41;16.80;99.90
56861;DHT22;42744;51.094;3.490;2023-07-31T07:00:08;16.90;99.90
56861;DHT22;42744;51.094;3.490;2023-07-31T07:02:34;16.90;99.90
56861;DHT22;42744;51.094;3.490;2023-07-31T07:04:59;16.90;99.90
56861;DHT22;42744;51.094;3.490;2023-07-31T07:07:26;16.90;99.90
56861;DHT22;42744;51.094;3.490;2023-07-31T07:09:52;17.00;99.90
56861;DHT22;42744;51.094;3.490;2023-07-31T07:12:18;17.00;99.90
56861;DHT22;42744;51.094;3.490;2023-07-31T07:14:44;17.00;99.90
56861;DHT22;42744;51.094;3.490;2023-07-31T07:17:13;17.10;99.90
56861;DHT22;42744;51.094;3.490;2023-07-31T07:19:40;17.20;99.90
56861;DHT22;42744;51.094;3.490;2023-07-31T07:22:07;17.20;99.90
56861;DHT22;42744;51.094;3.490;2023-07-31T07:24:33;17.20;99.90
56861;DHT22;42744;51.094;3.490;2023-07-31T07:26:59;17.20;99.90
56861;DHT22;42744;51.094;3.490;2023-07-31T07:29:25;17.20;99.90
56861;DHT22;42744;51.094;3.490;2023-07-31T07:31:51;17.20;99.90
56861;DHT22;42744;51.094;3.490;2023-07-31T07:34:17;17.20;99.90
56861;DHT22;42744;51.094;3.490;2023-07-31T07:36:43;17.20;99.90
56861;DHT22;42744;51.094;3.490;2023-07-31T07:39:10;17.20;99.90
56861;DHT22;42744;51.094;3.490;2023-07-31T07:41:36;17.20;99.90
56861;DHT22;42744;51.094;3.490;2023-07-31T07:44:03;17.20;99.90
56861;DHT22;42744;51.094;3.490;2023-07-31T07:46:29;17.20;99.90
56861;DHT22;42744;51.094;3.490;2023-07-31T07:48:54;17.20;99.90
56861;DHT22;42744;51.094;3.490;2023-07-31T07:51:21;17.20;99.90
56861;DHT22;42744;51.094;3.490;2023-07-31T07:53:46;17.20;99.90
56861;DHT22;42744;51.094;3.490;2023-07-31T07:56:12;17.30;99.90
56861;DHT22;42744;51.094;3.490;2023-07-31T07:58:38;17.30;99.90
56861;DHT22;42744;51.094;3.490;2023-07-31T08:01:04;17.30;99.90
56861;DHT22;42744;51.094;3.490;2023-07-31T08:03:30;17.40;99.90
56861;DHT22;42744;51.094;3.490;2023-07-31T08:06:00;17.40;99.90
56861;DHT22;42744;51.094;3.490;2023-07-31T08:08:27;17.40;99.90
56861;DHT22;42744;51.094;3.490;2023-07-31T08:10:53;17.40;99.90
56861;DHT22;42744;51.094;3.490;2023-07-31T08:13:19;17.40;99.90
56861;DHT22;42744;51.094;3.490;2023-07-31T08:15:45;17.40;99.90
56861;DHT22;42744;51.094;3.490;2023-07-31T08:18:12;17.40;99.90
56861;DHT22;42744;51.094;3.490;2023-07-31T08:20:38;17.50;99.90
56861;DHT22;42744;51.094;3.490;2023-07-31T08:23:04;17.50;99.90
56861;DHT22;42744;51.094;3.490;2023-07-31T08:25:30;17.50;99.90
56861;DHT22;42744;51.094;3.490;2023-07-31T08:27:56;17.60;99.90
56861;DHT22;42744;51.094;3.490;2023-07-31T08:30:22;17.60;99.90
56861;DHT22;42744;51.094;3.490;2023-07-31T08:32:49;17.70;99.90
56861;DHT22;42744;51.094;3.490;2023-07-31T08:35:15;17.70;99.90
56861;DHT22;42744;51.094;3.490;2023-07-31T08:37:41;17.80;99.90
56861;DHT22;42744;51.094;3.490;2023-07-31T08:40:07;17.90;99.90
56861;DHT22;42744;51.094;3.490;2023-07-31T08:42:33;18.00;99.90
56861;DHT22;42744;51.094;3.490;2023-07-31T08:44:59;18.00;99.90
56861;DHT22;42744;51.094;3.490;2023-07-31T08:47:27;18.10;99.90
56861;DHT22;42744;51.094;3.490;2023-07-31T08:49:54;18.20;99.90
56861;DHT22;42744;51.094;3.490;2023-07-31T08:52:21;18.20;99.90
56861;DHT22;42744;51.094;3.490;2023-07-31T08:54:47;18.10;99.90
56861;DHT22;42744;51.094;3.490;2023-07-31T08:57:14;18.20;99.90
56861;DHT22;42744;51.094;3.490;2023-07-31T08:59:40;18.20;99.90
56861;DHT22;42744;51.094;3.490;2023-07-31T09:02:08;18.20;99.90
56861;DHT22;42744;51.094;3.490;2023-07-31T09:04:34;18.20;99.90
56861;DHT22;42744;51.094;3.490;2023-07-31T09:07:03;18.20;99.90
56861;DHT22;42744;51.094;3.490;2023-07-31T09:09:33;18.20;99.90
56861;DHT22;42744;51.094;3.490;2023-07-31T09:11:59;18.20;99.90
56861;DHT22;42744;51.094;3.490;2023-07-31T09:14:25;18.20;99.90
56861;DHT22;42744;51.094;3.490;2023-07-31T09:16:56;18.20;99.90
56861;DHT22;42744;51.094;3.490;2023-07-31T09:19:29;18.20;99.90
56861;DHT22;42744;51.094;3.490;2023-07-31T09:21:55;18.20;99.90
56861;DHT22;42744;51.094;3.490;2023-07-31T09:24:32;18.20;99.90
56861;DHT22;42744;51.094;3.490;2023-07-31T09:26:59;18.20;99.90
56861;DHT22;42744;51.094;3.490;2023-07-31T09:29:26;18.20;99.90
56861;DHT22;42744;51.094;3.490;2023-07-31T09:31:54;18.20;99.90
56861;DHT22;42744;51.094;3.490;2023-07-31T09:34:27;18.20;99.90
56861;DHT22;42744;51.094;3.490;2023-07-31T09:36:54;18.30;99.90
56861;DHT22;42744;51.094;3.490;2023-07-31T09:39:20;18.40;99.90
56861;DHT22;42744;51.094;3.490;2023-07-31T09:41:56;18.40;99.90
56861;DHT22;42744;51.094;3.490;2023-07-31T09:44:37;18.40;99.90
56861;DHT22;42744;51.094;3.490;2023-07-31T09:47:03;18.40;99.90
56861;DHT22;42744;51.094;3.490;2023-07-31T09:49:30;18.50;99.90
56861;DHT22;42744;51.094;3.490;2023-07-31T09:51:56;18.50;99.90
56861;DHT22;42744;51.094;3.490;2023-07-31T09:54:21;18.60;99.90
56861;DHT22;42744;51.094;3.490;2023-07-31T09:56:48;18.60;99.90
56861;DHT22;42744;51.094;3.490;2023-07-31T09:59:16;18.70;99.90
56861;DHT22;42744;51.094;3.490;2023-07-31T10:01:44;18.70;99.90
56861;DHT22;42744;51.094;3.490;2023-07-31T10:04:12;18.80;99.90
56861;DHT22;42744;51.094;3.490;2023-07-31T10:06:40;18.80;99.90
56861;DHT22;42744;51.094;3.490;2023-07-31T10:09:08;18.80;99.90
56861;DHT22;42744;51.094;3.490;2023-07-31T10:11:38;18.90;99.90
56861;DHT22;42744;51.094;3.490;2023-07-31T10:14:07;18.90;99.90
56861;DHT22;42744;51.094;3.490;2023-07-31T10:16:37;18.90;99.90
56861;DHT22;42744;51.094;3.490;2023-07-31T10:19:04;19.00;99.90
56861;DHT22;42744;51.094;3.490;2023-07-31T10:21:31;19.00;99.90
56861;DHT22;42744;51.094;3.490;2023-07-31T10:24:04;19.00;99.90
56861;DHT22;42744;51.094;3.490;2023-07-31T10:26:35;19.10;99.90
56861;DHT22;42744;51.094;3.490;2023-07-31T10:29:06;19.10;99.90
56861;DHT22;42744;51.094;3.490;2023-07-31T10:31:39;19.10;99.90
56861;DHT22;42744;51.094;3.490;2023-07-31T10:34:14;19.10;99.90
56861;DHT22;42744;51.094;3.490;2023-07-31T10:36:48;19.20;99.90
56861;DHT22;42744;51.094;3.490;2023-07-31T10:39:37;19.30;99.90
56861;DHT22;42744;51.094;3.490;2023-07-31T10:42:14;19.30;99.90
56861;DHT22;42744;51.094;3.490;2023-07-31T10:44:46;19.40;99.90
56861;DHT22;42744;51.094;3.490;2023-07-31T10:47:15;19.50;99.90
56861;DHT22;42744;51.094;3.490;2023-07-31T10:49:45;19.50;99.90
56861;DHT22;42744;51.094;3.490;2023-07-31T10:52:12;19.60;99.90
56861;DHT22;42744;51.094;3.490;2023-07-31T10:54:39;19.60;99.90
56861;DHT22;42744;51.094;3.490;2023-07-31T10:57:20;19.60;99.90
56861;DHT22;42744;51.094;3.490;2023-07-31T10:59:46;19.60;99.90
56861;DHT22;42744;51.094;3.490;2023-07-31T11:02:24;19.60;99.90
56861;DHT22;42744;51.094;3.490;2023-07-31T11:05:11;19.70;99.90
56861;DHT22;42744;51.094;3.490;2023-07-31T11:07:48;19.70;99.90
56861;DHT22;42744;51.094;3.490;2023-07-31T11:10:18;19.70;99.90
56861;DHT22;42744;51.094;3.490;2023-07-31T11:12:47;19.80;99.90
56861;DHT22;42744;51.094;3.490;2023-07-31T11:15:13;19.90;99.90
56861;DHT22;42744;51.094;3.490;2023-07-31T11:17:39;19.90;99.90
56861;DHT22;42744;51.094;3.490;2023-07-31T11:20:06;19.90;99.90
56861;DHT22;42744;51.094;3.490;2023-07-31T11:22:35;19.80;99.90
56861;DHT22;42744;51.094;3.490;2023-07-31T11:25:03;19.90;99.90
56861;DHT22;42744;51.094;3.490;2023-07-31T11:27:30;19.90;99.90
56861;DHT22;42744;51.094;3.490;2023-07-31T11:30:02;20.00;99.90
56861;DHT22;42744;51.094;3.490;2023-07-31T11:32:29;20.10;99.90
56861;DHT22;42744;51.094;3.490;2023-07-31T11:34:55;20.10;99.90
56861;DHT22;42744;51.094;3.490;2023-07-31T11:37:21;20.20;99.90
56861;DHT22;42744;51.094;3.490;2023-07-31T11:40:00;20.30;99.90
56861;DHT22;42744;51.094;3.490;2023-07-31T11:42:26;20.30;99.90
56861;DHT22;42744;51.094;3.490;2023-07-31T11:44:52;20.30;99.90
56861;DHT22;42744;51.094;3.490;2023-07-31T11:47:18;20.30;99.90
56861;DHT22;42744;51.094;3.490;2023-07-31T11:49:45;20.40;99.90
56861;DHT22;42744;51.094;3.490;2023-07-31T11:52:12;20.30;99.90
56861;DHT22;42744;51.094;3.490;2023-07-31T11:54:39;20.30;99.90
56861;DHT22;42744;51.094;3.490;2023-07-31T11:57:06;20.40;99.90
56861;DHT22;42744;51.094;3.490;2023-07-31T11:59:32;20.50;99.90
56861;DHT22;42744;51.094;3.490;2023-07-31T12:01:59;20.60;99.90
56861;DHT22;42744;51.094;3.490;2023-07-31T12:04:25;20.60;99.90
56861;DHT22;42744;51.094;3.490;2023-07-31T12:06:53;20.50;99.90
56861;DHT22;42744;51.094;3.490;2023-07-31T12:09:19;20.50;99.90
56861;DHT22;42744;51.094;3.490;2023-07-31T12:11:46;20.40;99.90
56861;DHT22;42744;51.094;3.490;2023-07-31T12:14:24;20.30;99.90
56861;DHT22;42744;51.094;3.490;2023-07-31T12:17:03;20.30;99.90
56861;DHT22;42744;51.094;3.490;2023-07-31T12:19:30;20.20;99.90
56861;DHT22;42744;51.094;3.490;2023-07-31T12:21:56;20.10;99.90
56861;DHT22;42744;51.094;3.490;2023-07-31T12:24:22;19.90;99.90
56861;DHT22;42744;51.094;3.490;2023-07-31T12:26:48;19.70;99.90
56861;DHT22;42744;51.094;3.490;2023-07-31T12:29:15;19.60;99.90
56861;DHT22;42744;51.094;3.490;2023-07-31T12:31:41;19.60;99.90
56861;DHT22;42744;51.094;3.490;2023-07-31T12:34:18;19.50;99.90
56861;DHT22;42744;51.094;3.490;2023-07-31T12:36:45;19.40;99.90
56861;DHT22;42744;51.094;3.490;2023-07-31T12:39:10;19.30;99.90
56861;DHT22;42744;51.094;3.490;2023-07-31T12:41:36;19.30;99.90
56861;DHT22;42744;51.094;3.490;2023-07-31T12:44:03;19.20;99.90
56861;DHT22;42744;51.094;3.490;2023-07-31T12:46:29;19.10;99.90
56861;DHT22;42744;51.094;3.490;2023-07-31T12:48:55;19.10;99.90
56861;DHT22;42744;51.094;3.490;2023-07-31T12:51:21;19.00;99.90
56861;DHT22;42744;51.094;3.490;2023-07-31T12:53:47;19.00;99.90
56861;DHT22;42744;51.094;3.490;2023-07-31T12:56:12;19.00;99.90
56861;DHT22;42744;51.094;3.490;2023-07-31T12:58:39;19.00;99.90
56861;DHT22;42744;51.094;3.490;2023-07-31T13:01:04;18.90;99.90
56861;DHT22;42744;51.094;3.490;2023-07-31T13:03:32;18.90;99.90
56861;DHT22;42744;51.094;3.490;2023-07-31T13:05:58;18.90;99.90
56861;DHT22;42744;51.094;3.490;2023-07-31T13:08:24;18.80;99.90
56861;DHT22;42744;51.094;3.490;2023-07-31T13:10:49;18.80;99.90
56861;DHT22;42744;51.094;3.490;2023-07-31T13:13:16;18.70;99.90
56861;DHT22;42744;51.094;3.490;2023-07-31T13:15:43;18.70;99.90
56861;DHT22;42744;51.094;3.490;2023-07-31T13:18:09;18.60;99.90
56861;DHT22;42744;51.094;3.490;2023-07-31T13:20:35;18.60;99.90
56861;DHT22;42744;51.094;3.490;2023-07-31T13:23:01;18.60;99.90
56861;DHT22;42744;51.094;3.490;2023-07-31T13:25:27;18.60;99.90
56861;DHT22;42744;51.094;3.490;2023-07-31T13:27:53;18.50;99.90
56861;DHT22;42744;51.094;3.490;2023-07-31T13:30:19;18.50;99.90
56861;DHT22;42744;51.094;3.490;2023-07-31T13:32:45;18.50;99.90
56861;DHT22;42744;51.094;3.490;2023-07-31T13:35:11;18.50;99.90
56861;DHT22;42744;51.094;3.490;2023-07-31T13:37:37;18.50;99.90
56861;DHT22;42744;51.094;3.490;2023-07-31T13:40:03;18.50;99.90
56861;DHT22;42744;51.094;3.490;2023-07-31T13:42:33;18.50;99.90
56861;DHT22;42744;51.094;3.490;2023-07-31T13:44:58;18.50;99.90
56861;DHT22;42744;51.094;3.490;2023-07-31T13:47:24;18.50;99.90
56861;DHT22;42744;51.094;3.490;2023-07-31T13:49:50;18.50;99.90
56861;DHT22;42744;51.094;3.490;2023-07-31T13:52:16;18.50;99.90
56861;DHT22;42744;51.094;3.490;2023-07-31T13:54:43;18.50;99.90
56861;DHT22;42744;51.094;3.490;2023-07-31T13:57:15;18.50;99.90
56861;DHT22;42744;51.094;3.490;2023-07-31T13:59:41;18.50;99.90
56861;DHT22;42744;51.094;3.490;2023-07-31T14:02:10;18.50;99.90
56861;DHT22;42744;51.094;3.490;2023-07-31T14:04:42;18.50;99.90
56861;DHT22;42744;51.094;3.490;2023-07-31T14:07:11;18.50;99.90
56861;DHT22;42744;51.094;3.490;2023-07-31T14:09:37;18.50;99.90
56861;DHT22;42744;51.094;3.490;2023-07-31T14:12:03;18.50;99.90
56861;DHT22;42744;51.094;3.490;2023-07-31T14:14:29;18.50;99.90
56861;DHT22;42744;51.094;3.490;2023-07-31T14:16:55;18.50;99.90
56861;DHT22;42744;51.094;3.490;2023-07-31T14:19:21;18.50;99.90
56861;DHT22;42744;51.094;3.490;2023-07-31T14:21:47;18.50;99.90
56861;DHT22;42744;51.094;3.490;2023-07-31T14:24:13;18.50;99.90
56861;DHT22;42744;51.094;3.490;2023-07-31T14:26:39;18.50;99.90
56861;DHT22;42744;51.094;3.490;2023-07-31T14:29:05;18.50;99.90
56861;DHT22;42744;51.094;3.490;2023-07-31T14:31:31;18.50;99.90
56861;DHT22;42744;51.094;3.490;2023-07-31T14:33:57;18.50;99.90
56861;DHT22;42744;51.094;3.490;2023-07-31T14:36:23;18.50;99.90
56861;DHT22;42744;51.094;3.490;2023-07-31T14:38:49;18.50;99.90
56861;DHT22;42744;51.094;3.490;2023-07-31T14:41:15;18.50;99.90
56861;DHT22;42744;51.094;3.490;2023-07-31T14:43:41;18.50;99.90
56861;DHT22;42744;51.094;3.490;2023-07-31T14:46:07;18.50;99.90
56861;DHT22;42744;51.094;3.490;2023-07-31T14:48:33;18.50;99.90
56861;DHT22;42744;51.094;3.490;2023-07-31T14:50:59;18.60;99.90
56861;DHT22;42744;51.094;3.490;2023-07-31T14:53:25;18.50;99.90
56861;DHT22;42744;51.094;3.490;2023-07-31T14:55:51;18.60;99.90
56861;DHT22;42744;51.094;3.490;2023-07-31T14:58:18;18.50;99.90
56861;DHT22;42744;51.094;3.490;2023-07-31T15:00:44;18.50;99.90
56861;DHT22;42744;51.094;3.490;2023-07-31T15:03:10;18.50;99.90
56861;DHT22;42744;51.094;3.490;2023-07-31T15:05:37;18.50;99.90
56861;DHT22;42744;51.094;3.490;2023-07-31T15:08:02;18.50;99.90
56861;DHT22;42744;51.094;3.490;2023-07-31T15:10:29;18.50;99.90
56861;DHT22;42744;51.094;3.490;2023-07-31T15:12:55;18.50;99.90
56861;DHT22;42744;51.094;3.490;2023-07-31T15:15:21;18.50;99.90
56861;DHT22;42744;51.094;3.490;2023-07-31T15:17:47;18.50;99.90
56861;DHT22;42744;51.094;3.490;2023-07-31T15:20:13;18.50;99.90
56861;DHT22;42744;51.094;3.490;2023-07-31T15:22:39;18.50;99.90
56861;DHT22;42744;51.094;3.490;2023-07-31T15:25:05;18.50;99.90
56861;DHT22;42744;51.094;3.490;2023-07-31T15:27:31;18.50;99.90
56861;DHT22;42744;51.094;3.490;2023-07-31T15:29:57;18.50;99.90
56861;DHT22;42744;51.094;3.490;2023-07-31T15:32:23;18.50;99.90